Time;durP1;ratioP1;P1;durP2;ratioP2;P2;SDS_P1;SDS_P2;PMS_P1;PMS_P2;Temp;Humidity;BMP_temperature;BMP_pressure;BME280_temperature;BME280_humidity;BME280_pressure;Samples;Min_cycle;Max_cycle;Signal;HPM_P1;HPM_P2
2022/03/26 00:02:34;;;;;;;66.50;36.90;;;;;;;2.98;62.59;100774.02;214174;1273;139598;-71
2022/03/26 00:07:38;;;;;;;71.20;35.70;;;;;;;2.88;62.94;100772.87;214000;1274;139897;-72
2022/03/26 00:12:42;;;;;;;72.90;36.40;;;;;;;2.79;63.26;100773.06;213612;1274;140678;-70
2022/03/26 00:17:46;;;;;;;61.60;34.20;;;;;;;2.72;63.33;100767.23;214098;1274;139814;-71
2022/03/26 00:22:51;;;;;;;65.40;33.40;;;;;;;2.65;63.88;100761.63;214571;1273;139553;-68
2022/03/26 00:27:55;;;;;;;65.20;35.10;;;;;;;2.58;63.93;100761.98;213330;1274;140482;-69
2022/03/26 00:33:00;;;;;;;76.10;32.40;;;;;;;2.50;64.12;100747.01;214615;1272;140131;-71
2022/03/26 00:38:04;;;;;;;59.30;33.20;;;;;;;2.43;64.43;100745.23;214290;1274;139641;-72
2022/03/26 00:43:08;;;;;;;67.00;33.30;;;;;;;2.43;65.06;100737.35;214315;1274;140700;-71
2022/03/26 00:48:12;;;;;;;64.60;32.80;;;;;;;2.45;65.08;100734.15;213602;1274;141863;-68
2022/03/26 00:53:17;;;;;;;73.30;40.60;;;;;;;2.48;65.23;100731.37;214777;1274;141635;-68
2022/03/26 00:58:21;;;;;;;87.50;41.00;;;;;;;2.52;65.43;100729.61;215394;1274;140304;-69
2022/03/26 01:03:25;;;;;;;80.50;38.10;;;;;;;2.57;65.69;100719.27;215794;1274;141315;-72
2022/03/26 01:08:30;;;;;;;72.60;37.30;;;;;;;2.58;65.46;100719.61;214735;1274;140317;-67
2022/03/26 01:13:34;;;;;;;83.20;39.60;;;;;;;2.55;65.14;100718.96;215667;1273;140787;-70
2022/03/26 01:18:40;;;;;;;70.80;39.70;;;;;;;2.51;65.56;100719.34;215936;1274;139817;-70
2022/03/26 01:23:46;;;;;;;78.20;42.20;;;;;;;2.46;65.41;100717.06;216290;1273;140289;-70
2022/03/26 01:28:51;;;;;;;70.00;37.50;;;;;;;2.38;65.57;100715.92;215706;1273;141684;-69
2022/03/26 01:33:55;;;;;;;48.20;27.20;;;;;;;2.26;65.66;100705.20;215650;1274;141003;-71
2022/03/26 01:39:00;;;;;;;62.40;36.90;;;;;;;2.16;65.86;100699.63;214543;1274;140185;-72
2022/03/26 01:44:04;;;;;;;76.20;40.60;;;;;;;2.03;65.98;100696.92;214132;1273;140641;-72
2022/03/26 01:49:08;;;;;;;75.30;41.10;;;;;;;1.96;66.05;100700.30;214782;1274;140219;-69
2022/03/26 01:54:14;;;;;;;82.90;41.70;;;;;;;1.89;66.37;100695.69;213967;1274;140721;-71
2022/03/26 01:59:19;;;;;;;79.20;41.00;;;;;;;1.91;66.49;100697.61;214272;1271;140601;-72
2022/03/26 02:04:24;;;;;;;74.90;42.40;;;;;;;1.88;66.57;100696.54;214583;1274;139857;-68
2022/03/26 02:09:35;;;;;;;61.10;36.90;;;;;;;1.85;66.78;100694.16;214528;1274;140303;-67
2022/03/26 02:14:40;;;;;;;78.50;37.40;;;;;;;1.75;66.59;100689.23;214150;1272;139956;-69
2022/03/26 02:20:12;;;;;;;65.00;38.40;;;;;;;1.68;67.11;100687.91;213459;1273;139706;-66
2022/03/26 02:25:17;;;;;;;74.80;39.00;;;;;;;1.64;67.49;100686.83;214605;1274;140202;-68
2022/03/26 02:30:22;;;;;;;73.50;40.90;;;;;;;1.58;67.34;100683.92;213646;1274;139571;-68
2022/03/26 02:35:27;;;;;;;85.70;44.80;;;;;;;1.53;67.28;100686.55;214030;1273;139805;-67
2022/03/26 02:40:31;;;;;;;80.70;41.80;;;;;;;1.52;67.88;100684.58;214077;1273;140469;-66
2022/03/26 02:45:35;;;;;;;85.00;41.00;;;;;;;1.57;67.62;100675.98;214126;1274;141646;-77
2022/03/26 02:50:40;;;;;;;109.70;65.10;;;;;;;1.61;67.83;100671.03;213341;1274;140040;-66
2022/03/26 02:55:44;;;;;;;94.80;54.30;;;;;;;1.61;68.09;100657.92;215623;1273;139738;-68
2022/03/26 03:00:49;;;;;;;101.10;52.40;;;;;;;1.66;68.49;100654.61;215097;1272;139810;-65
2022/03/26 03:05:53;;;;;;;90.60;47.50;;;;;;;1.75;68.82;100638.61;213355;1272;139931;-67
2022/03/26 03:10:58;;;;;;;77.50;37.40;;;;;;;1.86;69.19;100629.91;215956;1274;140449;-72
2022/03/26 03:16:03;;;;;;;77.20;42.20;;;;;;;2.02;69.47;100628.33;216152;1273;142089;-70
2022/03/26 03:21:07;;;;;;;77.70;43.90;;;;;;;2.20;69.64;100622.27;216246;1273;140348;-69
2022/03/26 03:26:11;;;;;;;83.10;44.20;;;;;;;2.38;69.29;100619.98;216176;1274;140873;-69
2022/03/26 03:31:15;;;;;;;113.80;58.20;;;;;;;2.53;70.04;100618.42;216260;1273;141161;-78
2022/03/26 03:36:20;;;;;;;118.30;59.40;;;;;;;2.64;69.77;100619.02;215703;1273;140723;-71
2022/03/26 03:41:25;;;;;;;85.20;46.40;;;;;;;2.70;69.60;100618.54;216116;1274;140145;-74
2022/03/26 03:46:30;;;;;;;76.90;41.90;;;;;;;2.76;69.68;100603.71;216092;1274;140533;-74
2022/03/26 03:51:35;;;;;;;76.70;40.50;;;;;;;2.81;69.45;100591.14;214704;1274;140578;-69
2022/03/26 03:56:41;;;;;;;78.30;44.30;;;;;;;2.83;69.45;100585.88;214006;1274;140049;-74
2022/03/26 04:01:45;;;;;;;77.80;40.90;;;;;;;2.87;69.89;100583.69;214758;1274;140397;-73
2022/03/26 04:06:51;;;;;;;70.60;40.20;;;;;;;2.90;69.91;100589.88;214790;1274;140419;-76
2022/03/26 04:11:55;;;;;;;73.50;36.40;;;;;;;2.95;69.74;100588.30;213633;1274;142831;-73
2022/03/26 04:16:59;;;;;;;64.00;39.40;;;;;;;3.01;69.90;100580.08;213684;1273;141276;-67
2022/03/26 04:22:05;;;;;;;68.90;36.90;;;;;;;3.06;70.00;100576.25;214530;1274;140991;-67
2022/03/26 04:27:10;;;;;;;71.40;37.60;;;;;;;3.11;70.20;100581.27;213440;1274;140842;-71
2022/03/26 04:32:17;;;;;;;66.80;36.20;;;;;;;3.15;70.13;100583.45;213956;1274;140573;-71
2022/03/26 04:37:20;;;;;;;65.60;35.80;;;;;;;3.22;70.25;100579.23;213160;1274;139815;-70
2022/03/26 04:42:27;;;;;;;67.40;38.30;;;;;;;3.28;70.09;100573.44;213289;1274;141246;-68
2022/03/26 04:47:32;;;;;;;63.70;34.10;;;;;;;3.39;70.24;100571.76;213370;1274;142027;-71
2022/03/26 04:52:41;;;;;;;65.80;34.30;;;;;;;3.49;70.32;100572.36;213553;1274;139920;-74
2022/03/26 04:57:51;;;;;;;71.00;32.00;;;;;;;3.57;70.31;100566.19;214030;1274;139622;-73
2022/03/26 05:02:56;;;;;;;54.40;29.60;;;;;;;3.67;70.44;100567.50;214572;1274;139721;-74
2022/03/26 05:08:00;;;;;;;75.90;41.30;;;;;;;3.85;70.53;100565.04;214001;1274;139943;-73
2022/03/26 05:13:05;;;;;;;61.30;31.40;;;;;;;4.05;70.39;100559.38;214231;1274;152540;-72
2022/03/26 05:18:08;;;;;;;59.60;32.90;;;;;;;4.28;70.36;100561.24;215329;1274;141630;-73
2022/03/26 05:23:13;;;;;;;66.40;33.40;;;;;;;4.55;70.03;100571.89;213276;1274;140515;-72
2022/03/26 05:28:17;;;;;;;49.30;27.80;;;;;;;4.79;69.83;100566.27;215593;1274;140124;-71
2022/03/26 05:33:21;;;;;;;43.90;23.50;;;;;;;4.97;69.78;100560.07;215602;1274;140225;-76
2022/03/26 05:38:26;;;;;;;39.20;21.60;;;;;;;5.16;69.44;100557.58;213668;1274;139627;-73
2022/03/26 05:43:31;;;;;;;46.80;28.30;;;;;;;5.34;69.16;100549.23;216189;1274;140055;-75
2022/03/26 05:48:36;;;;;;;56.60;31.10;;;;;;;5.53;68.98;100553.89;215610;1274;139990;-71
2022/03/26 05:53:41;;;;;;;61.80;28.90;;;;;;;5.73;68.78;100553.98;214584;1274;141338;-71
2022/03/26 05:58:45;;;;;;;50.90;28.70;;;;;;;5.90;68.41;100537.44;214185;1274;140060;-65
2022/03/26 06:03:50;;;;;;;42.90;24.70;;;;;;;6.08;68.53;100544.56;214077;1274;141886;-70
2022/03/26 06:08:53;;;;;;;53.40;29.50;;;;;;;6.28;68.16;100547.67;215077;1273;140797;-69
2022/03/26 06:13:57;;;;;;;56.20;30.00;;;;;;;6.50;67.81;100547.58;213940;1274;142598;-72
2022/03/26 06:19:03;;;;;;;52.90;24.20;;;;;;;6.72;67.50;100539.23;214285;1274;142126;-71
2022/03/26 06:24:07;;;;;;;45.40;27.80;;;;;;;6.89;67.75;100531.77;214398;1272;140305;-69
2022/03/26 06:29:14;;;;;;;39.70;23.90;;;;;;;7.06;67.01;100533.64;214759;1274;142342;-77
2022/03/26 06:34:19;;;;;;;37.80;20.60;;;;;;;7.23;67.17;100528.69;213256;1274;141608;-74
2022/03/26 06:39:23;;;;;;;44.80;25.30;;;;;;;7.42;67.04;100523.13;214177;1274;141763;-73
2022/03/26 06:44:30;;;;;;;51.20;26.40;;;;;;;7.63;66.43;100512.30;213955;1274;142483;-76
2022/03/26 06:49:36;;;;;;;41.40;26.10;;;;;;;7.81;66.60;100515.09;213814;1274;142145;-72
2022/03/26 06:54:40;;;;;;;40.20;24.40;;;;;;;8.02;66.01;100509.70;214367;1274;141134;-72
2022/03/26 06:59:45;;;;;;;76.50;44.80;;;;;;;8.23;65.44;100512.75;214212;1274;141201;-68
2022/03/26 07:04:49;;;;;;;47.20;25.00;;;;;;;8.50;65.43;100505.03;213439;1274;141015;-78
2022/03/26 07:09:53;;;;;;;37.70;24.20;;;;;;;8.86;65.21;100502.80;213558;1274;142025;-79
2022/03/26 07:14:58;;;;;;;41.60;24.20;;;;;;;9.79;64.50;100502.00;215002;1274;141670;-77
2022/03/26 07:20:02;;;;;;;38.60;21.60;;;;;;;11.13;63.76;100494.63;213213;1274;140434;-72
2022/03/26 07:25:09;;;;;;;41.60;22.10;;;;;;;12.69;62.21;100491.92;213496;1276;141842;-73
2022/03/26 07:30:14;;;;;;;33.90;20.30;;;;;;;14.17;60.52;100483.96;214640;1274;141452;-74
2022/03/26 07:35:19;;;;;;;27.90;22.00;;;;;;;15.28;58.63;100482.05;214901;1274;140457;-77
2022/03/26 07:40:24;;;;;;;24.90;17.70;;;;;;;15.82;56.80;100478.48;215209;1274;140129;-77
2022/03/26 07:45:29;;;;;;;21.90;16.10;;;;;;;15.97;55.43;100479.78;216027;1274;141063;-74
2022/03/26 07:50:33;;;;;;;19.70;13.60;;;;;;;16.08;54.52;100477.87;216056;1274;140114;-73
2022/03/26 07:55:38;;;;;;;20.40;13.30;;;;;;;16.23;53.68;100475.64;216007;1274;141035;-71
2022/03/26 08:00:43;;;;;;;24.50;13.90;;;;;;;16.27;52.72;100482.03;215796;1274;140312;-71
2022/03/26 08:05:48;;;;;;;31.20;15.10;;;;;;;16.19;52.12;100482.17;214951;1274;144017;-68
2022/03/26 08:10:56;;;;;;;15.40;11.70;;;;;;;16.05;51.71;100478.48;214429;1273;140796;-75
2022/03/26 08:16:01;;;;;;;20.20;11.50;;;;;;;15.82;51.00;100471.60;214265;1274;140060;-70
2022/03/26 08:21:06;;;;;;;30.00;17.30;;;;;;;15.33;50.90;100461.83;214554;1274;140710;-77
2022/03/26 08:26:20;;;;;;;16.80;10.10;;;;;;;15.12;50.96;100463.83;215069;1274;140346;-72
2022/03/26 08:31:26;;;;;;;20.30;12.20;;;;;;;15.04;51.07;100460.27;213241;1274;140170;-77
2022/03/26 08:36:31;;;;;;;24.60;11.60;;;;;;;15.01;50.97;100456.36;214455;1273;140942;-75
2022/03/26 08:41:35;;;;;;;16.10;10.10;;;;;;;14.92;50.87;100455.08;213794;1274;140506;-73
2022/03/26 08:46:39;;;;;;;19.50;10.90;;;;;;;14.94;50.57;100451.35;213495;1274;140460;-73
2022/03/26 08:51:44;;;;;;;18.50;9.30;;;;;;;15.03;50.61;100454.03;214326;1274;140109;-76
2022/03/26 08:56:48;;;;;;;15.30;10.30;;;;;;;15.22;50.58;100453.29;213604;1274;140851;-75
2022/03/26 09:01:52;;;;;;;18.80;9.60;;;;;;;15.48;50.24;100451.70;214070;1273;140144;-75
2022/03/26 09:06:57;;;;;;;17.70;10.30;;;;;;;15.59;49.81;100439.13;213864;1274;140351;-73
2022/03/26 09:12:01;;;;;;;18.00;9.00;;;;;;;15.70;49.67;100436.09;213754;1274;141333;-74
2022/03/26 09:17:05;;;;;;;19.20;9.60;;;;;;;15.95;49.37;100444.48;214179;1274;139892;-75
2022/03/26 09:22:15;;;;;;;14.50;9.30;;;;;;;16.10;48.81;100429.06;214504;1274;141132;-71
2022/03/26 09:27:20;;;;;;;24.80;9.00;;;;;;;16.25;48.50;100426.39;214639;1274;140600;-66
2022/03/26 09:32:24;;;;;;;16.70;9.30;;;;;;;16.27;48.13;100424.30;213356;1274;139440;-77
2022/03/26 09:37:28;;;;;;;13.20;9.20;;;;;;;16.33;47.71;100423.29;215208;1274;141670;-76
2022/03/26 09:42:34;;;;;;;24.50;7.90;;;;;;;16.55;47.43;100419.91;214970;1274;141620;-75
2022/03/26 09:47:39;;;;;;;13.00;7.50;;;;;;;16.84;47.30;100425.33;215041;1274;140338;-73
2022/03/26 09:52:43;;;;;;;14.50;7.70;;;;;;;17.40;46.55;100417.17;215686;1274;570611;-73
2022/03/26 09:57:49;;;;;;;17.20;10.70;;;;;;;17.71;45.70;100408.04;216086;1273;141752;-74
2022/03/26 10:02:52;;;;;;;23.70;10.10;;;;;;;17.80;44.81;100412.65;216129;1274;140583;-72
2022/03/26 10:07:59;;;;;;;7.20;6.40;;;;;;;17.81;44.29;100404.73;215818;1273;140274;-72
2022/03/26 10:13:05;;;;;;;10.50;7.00;;;;;;;17.93;44.12;100402.60;215599;1274;141210;-75
2022/03/26 10:18:09;;;;;;;11.90;6.60;;;;;;;18.01;43.74;100402.08;215163;1274;141600;-74
2022/03/26 10:23:29;;;;;;;18.40;7.90;;;;;;;17.85;43.21;100396.33;215194;1274;142061;-74
2022/03/26 10:28:35;;;;;;;12.80;7.90;;;;;;;17.72;43.07;100396.79;214391;1274;140130;-72
2022/03/26 10:33:39;;;;;;;17.60;7.60;;;;;;;17.65;42.95;100397.08;215122;1274;141163;-71
2022/03/26 10:38:43;;;;;;;12.30;6.60;;;;;;;17.74;43.01;100386.86;214470;1274;140498;-70
2022/03/26 10:43:48;;;;;;;8.60;6.90;;;;;;;17.73;42.82;100388.26;215103;1274;139843;-67
2022/03/26 10:49:02;;;;;;;15.70;6.90;;;;;;;17.60;42.69;100388.53;215077;1274;139628;-71
2022/03/26 10:54:11;;;;;;;11.00;6.40;;;;;;;17.30;42.51;100384.05;214329;1274;141043;-76
2022/03/26 10:59:16;;;;;;;10.00;7.20;;;;;;;16.97;42.69;100383.72;214172;1274;139896;-75
2022/03/26 11:04:21;;;;;;;14.00;7.00;;;;;;;16.66;42.90;100385.35;214207;1274;139918;-74
2022/03/26 11:09:28;;;;;;;16.00;6.60;;;;;;;16.37;42.98;100380.23;214162;1274;140584;-75
2022/03/26 11:14:37;;;;;;;14.30;6.70;;;;;;;16.17;43.24;100377.04;214625;1274;221402;-72
2022/03/26 11:20:00;;;;;;;16.80;6.40;;;;;;;16.03;43.50;100376.73;213506;1274;140538;-73
2022/03/26 11:25:23;;;;;;;7.20;5.50;;;;;;;15.88;43.93;100368.77;214120;1274;139885;-72
2022/03/26 11:31:08;;;;;;;8.10;5.60;;;;;;;15.80;44.31;100370.25;212954;1274;139729;-70
2022/03/26 11:36:17;;;;;;;7.60;5.90;;;;;;;15.61;44.48;100367.98;213420;1282;140475;-68
2022/03/26 11:41:42;;;;;;;10.30;5.70;;;;;;;15.40;44.98;100373.47;214323;1274;139839;-72
2022/03/26 11:52:15;;;;;;;14.30;7.80;;;;;;;14.88;46.56;100390.42;213447;1274;140473;-67
2022/03/26 11:57:23;;;;;;;11.10;8.30;;;;;;;14.63;47.36;100394.07;213196;1274;141173;-72
2022/03/26 12:02:34;;;;;;;32.20;8.00;;;;;;;14.37;48.46;100403.36;215281;1274;141680;-70
2022/03/26 12:07:42;;;;;;;18.50;7.80;;;;;;;14.15;49.67;100407.52;215895;1274;141167;-73
2022/03/26 12:12:49;;;;;;;7.10;6.00;;;;;;;13.87;50.63;100416.14;216091;1274;140131;-70
2022/03/26 12:18:14;;;;;;;12.70;7.30;;;;;;;13.59;51.89;100438.95;215914;1274;140785;-73
2022/03/26 12:23:19;;;;;;;12.70;8.00;;;;;;;13.42;53.31;100446.31;215270;1274;139818;-69
2022/03/26 12:28:25;;;;;;;20.50;11.30;;;;;;;13.18;54.61;100454.57;215482;1272;140096;-72
2022/03/26 12:33:29;;;;;;;19.70;11.80;;;;;;;12.87;55.94;100461.23;215875;1274;140101;-77
2022/03/26 12:38:33;;;;;;;19.60;12.40;;;;;;;12.58;57.28;100462.30;215439;1274;140882;-68
2022/03/26 12:43:37;;;;;;;17.40;11.00;;;;;;;12.30;58.19;100464.52;214787;1274;142171;-77
2022/03/26 12:48:42;;;;;;;19.70;10.70;;;;;;;11.99;58.70;100469.81;214093;1274;141116;-71
2022/03/26 12:53:46;;;;;;;19.20;12.10;;;;;;;11.69;59.28;100472.48;214237;1274;142061;-70
2022/03/26 12:59:00;;;;;;;24.30;12.70;;;;;;;11.45;59.59;100475.77;213901;1274;141389;-71
2022/03/26 13:04:07;;;;;;;26.70;15.40;;;;;;;11.25;59.63;100482.80;214253;1274;141812;-70
2022/03/26 13:09:11;;;;;;;;;;;;;;;11.15;60.20;100490.13;213701;1274;141918;-72
2022/03/26 13:14:18;;;;;;;22.10;14.40;;;;;;;11.03;60.41;100497.91;213688;1274;128464;-70
2022/03/26 13:19:34;;;;;;;22.80;14.00;;;;;;;10.94;60.25;100506.50;213511;1274;140926;-67
2022/03/26 13:24:52;;;;;;;24.30;15.90;;;;;;;10.88;60.48;100507.95;213018;1274;142279;-69
2022/03/26 13:30:09;;;;;;;26.00;15.50;;;;;;;10.83;60.68;100512.82;213276;1274;140533;-66
2022/03/26 13:35:14;;;;;;;30.00;18.30;;;;;;;10.73;60.65;100511.63;213133;1274;140624;-67
2022/03/26 13:40:30;;;;;;;19.90;13.70;;;;;;;10.67;60.74;100511.93;213780;1274;140981;-67
2022/03/26 13:45:35;;;;;;;22.10;16.00;;;;;;;10.64;61.00;100514.16;214320;1274;146692;-71
2022/03/26 13:50:40;;;;;;;23.90;15.20;;;;;;;10.60;60.95;100514.31;214471;1274;140561;-70
2022/03/26 13:56:04;;;;;;;25.30;17.00;;;;;;;10.57;61.03;100516.80;215530;1274;140562;-72
2022/03/26 14:01:09;;;;;;;31.50;16.30;;;;;;;10.57;61.23;100515.64;214106;1274;140005;-71
2022/03/26 14:06:16;;;;;;;22.20;14.80;;;;;;;10.58;61.25;100519.98;214817;1274;140974;-71
2022/03/26 14:11:21;;;;;;;;;;;;;;;10.58;61.32;100519.29;215737;1274;141281;-68
2022/03/26 14:16:25;;;;;;;27.30;17.30;;;;;;;10.52;61.36;100522.27;216899;1274;128333;-69
2022/03/26 14:21:29;;;;;;;21.70;14.60;;;;;;;10.45;61.28;100523.38;216178;1274;142297;-71
2022/03/26 14:26:33;;;;;;;27.00;13.70;;;;;;;10.41;61.30;100528.70;216283;1274;140231;-77
2022/03/26 14:31:38;;;;;;;25.40;14.60;;;;;;;10.35;61.14;100529.20;213405;1274;154933;-72
2022/03/26 14:36:42;;;;;;;21.80;12.80;;;;;;;10.32;61.46;100527.70;215935;1273;140973;-73
2022/03/26 14:41:46;;;;;;;16.70;10.90;;;;;;;10.32;61.38;100536.18;215795;1274;139890;-71
2022/03/26 14:46:50;;;;;;;20.30;11.40;;;;;;;10.31;61.36;100545.23;214586;1274;140327;-71
2022/03/26 14:51:54;;;;;;;17.60;11.80;;;;;;;10.28;61.31;100554.93;215927;1274;142530;-73
2022/03/26 14:56:58;;;;;;;17.10;9.30;;;;;;;10.27;61.21;100559.90;213207;1274;140561;-68
2022/03/26 15:02:03;;;;;;;13.10;8.60;;;;;;;10.21;61.28;100565.69;214853;1274;140989;-69
2022/03/26 15:07:09;;;;;;;13.30;9.70;;;;;;;10.08;61.35;100574.75;213793;1274;140587;-68
2022/03/26 15:12:13;;;;;;;11.90;9.40;;;;;;;9.98;61.45;100577.05;214071;1274;140764;-69
2022/03/26 15:17:18;;;;;;;12.80;7.50;;;;;;;9.97;61.60;100581.91;214828;1274;140078;-69
2022/03/26 15:22:23;;;;;;;15.70;8.00;;;;;;;9.98;61.57;100580.73;214092;1274;140978;-72
2022/03/26 15:27:27;;;;;;;8.80;5.40;;;;;;;9.97;61.69;100588.52;213553;1274;140641;-67
2022/03/26 15:32:31;;;;;;;13.90;8.00;;;;;;;9.95;61.61;100585.20;213613;1274;141044;-72
2022/03/26 15:37:35;;;;;;;13.00;8.30;;;;;;;9.97;61.71;100587.50;213329;1274;139794;-71
2022/03/26 15:42:39;;;;;;;15.10;9.10;;;;;;;10.03;61.71;100592.15;213393;1274;142996;-70
2022/03/26 15:47:43;;;;;;;10.70;8.00;;;;;;;10.02;61.66;100593.55;213228;1274;139671;-69
2022/03/26 15:52:47;;;;;;;12.00;7.30;;;;;;;9.91;61.55;100598.15;214431;1274;140383;-70
2022/03/26 15:57:50;;;;;;;12.60;8.10;;;;;;;9.83;61.58;100601.29;213211;1274;140506;-70
2022/03/26 16:02:54;;;;;;;12.10;7.10;;;;;;;9.79;61.93;100615.59;215011;1273;139831;-74
2022/03/26 16:07:59;;;;;;;12.40;7.20;;;;;;;9.78;61.97;100622.85;214565;1274;139845;-69
2022/03/26 16:13:04;;;;;;;11.40;7.80;;;;;;;9.74;62.01;100628.69;214224;1274;142632;-70
2022/03/26 16:18:09;;;;;;;9.80;6.70;;;;;;;9.69;62.14;100640.04;213330;1274;141315;-68
2022/03/26 16:23:13;;;;;;;10.70;7.00;;;;;;;9.64;62.36;100637.63;214758;1274;141274;-72
2022/03/26 16:28:18;;;;;;;12.90;7.40;;;;;;;9.58;62.53;100633.02;215896;1273;140944;-74
2022/03/26 16:33:23;;;;;;;13.60;9.60;;;;;;;9.52;62.56;100640.33;216206;1274;140322;-75
2022/03/26 16:38:26;;;;;;;15.30;8.10;;;;;;;9.48;62.61;100642.54;215729;1273;140239;-70
2022/03/26 16:43:31;;;;;;;8.30;6.10;;;;;;;9.45;62.62;100647.02;214156;1274;141437;-73
2022/03/26 16:48:34;;;;;;;9.90;6.80;;;;;;;9.41;62.92;100652.83;215990;1274;139880;-70
2022/03/26 16:53:42;;;;;;;13.40;6.70;;;;;;;9.33;63.12;100654.26;216120;1273;141912;-73
2022/03/26 16:58:46;;;;;;;8.30;7.00;;;;;;;9.25;63.11;100661.23;213592;1274;141308;-68
2022/03/26 17:03:50;;;;;;;25.50;14.60;;;;;;;9.17;63.37;100661.67;215122;1274;139811;-72
2022/03/26 17:08:53;;;;;;;24.10;15.20;;;;;;;9.05;63.45;100662.13;215143;1274;139871;-71
2022/03/26 17:13:58;;;;;;;36.50;17.90;;;;;;;8.98;63.70;100665.21;214482;1274;141225;-67
2022/03/26 17:19:06;;;;;;;17.10;9.50;;;;;;;8.87;63.83;100674.63;214866;1273;140354;-70
2022/03/26 17:24:10;;;;;;;23.20;8.60;;;;;;;8.72;63.99;100678.73;214971;1274;140331;-70
2022/03/26 17:29:14;;;;;;;10.80;8.60;;;;;;;8.57;64.18;100683.58;214490;1271;140599;-70
2022/03/26 17:34:20;;;;;;;10.30;7.60;;;;;;;8.44;64.82;100691.09;213416;1271;141651;-68
2022/03/26 17:39:29;;;;;;;13.80;8.00;;;;;;;8.28;64.92;100698.80;213770;1274;140583;-70
2022/03/26 17:44:33;;;;;;;15.60;8.60;;;;;;;8.14;65.05;100714.59;213846;1274;142398;-69
2022/03/26 17:49:39;;;;;;;10.50;7.20;;;;;;;8.06;64.96;100722.75;214305;1274;141383;-67
2022/03/26 17:54:46;;;;;;;13.50;8.10;;;;;;;7.98;64.87;100727.19;215044;1274;140822;-70
2022/03/26 17:59:50;;;;;;;13.60;8.30;;;;;;;7.88;65.44;100738.23;213315;1274;140345;-65
2022/03/26 18:04:54;;;;;;;12.20;7.30;;;;;;;7.78;65.05;100747.30;213236;1274;139917;-67
2022/03/26 18:09:59;;;;;;;11.00;6.90;;;;;;;7.69;65.37;100755.21;213582;1274;140553;-66
2022/03/26 18:15:05;;;;;;;13.70;9.30;;;;;;;7.64;65.75;100763.47;213255;1274;141495;-66
2022/03/26 18:20:10;;;;;;;12.00;9.00;;;;;;;7.65;65.88;100775.06;214114;1273;140046;-66
2022/03/26 18:25:14;;;;;;;23.60;10.30;;;;;;;7.69;65.74;100776.13;213082;1274;140154;-65
2022/03/26 18:30:18;;;;;;;17.10;10.60;;;;;;;7.73;66.07;100776.13;215468;1274;141834;-68
2022/03/26 18:35:23;;;;;;;15.60;9.10;;;;;;;7.76;65.92;100784.40;214896;1274;142186;-70
2022/03/26 18:40:28;;;;;;;20.70;12.00;;;;;;;7.81;66.05;100788.36;216141;1272;139611;-70
2022/03/26 18:45:31;;;;;;;15.90;8.80;;;;;;;7.83;65.97;100792.10;216077;1272;140773;-69
2022/03/26 18:50:36;;;;;;;14.60;9.80;;;;;;;7.85;66.13;100803.80;216106;1274;141346;-69
2022/03/26 18:55:39;;;;;;;21.30;13.60;;;;;;;7.86;66.13;100808.21;215885;1274;140761;-69
2022/03/26 19:00:45;;;;;;;15.00;9.90;;;;;;;7.88;66.30;100818.27;215558;1274;140747;-70
2022/03/26 19:05:50;;;;;;;17.40;10.90;;;;;;;7.88;66.45;100827.64;213822;1274;140602;-70
2022/03/26 19:10:54;;;;;;;11.20;7.80;;;;;;;7.83;66.32;100848.91;214839;1274;140474;-67
2022/03/26 19:15:58;;;;;;;12.90;8.40;;;;;;;7.74;66.60;100867.88;213398;1271;139750;-69
2022/03/26 19:21:26;;;;;;;8.60;5.40;;;;;;;7.58;64.72;100882.82;214576;1274;140982;-69
2022/03/26 19:26:30;;;;;;;10.30;5.50;;;;;;;7.32;63.66;100905.00;213319;1274;141021;-67
2022/03/26 19:31:35;;;;;;;5.50;3.70;;;;;;;7.10;62.98;100914.94;213537;1274;140771;-76
2022/03/26 19:36:42;;;;;;;11.10;3.40;;;;;;;6.92;61.27;100934.60;213587;1273;140150;-72
2022/03/26 19:41:46;;;;;;;13.40;3.20;;;;;;;6.70;60.52;100944.95;213719;1274;139426;-70
2022/03/26 19:46:50;;;;;;;5.80;3.20;;;;;;;6.57;60.41;100952.95;213987;1272;140322;-67
2022/03/26 19:51:58;;;;;;;30.60;3.00;;;;;;;6.49;59.92;100958.48;213181;1274;139201;-72
2022/03/26 19:57:03;;;;;;;6.70;3.10;;;;;;;6.42;59.46;100959.23;213450;1274;140215;-68
2022/03/26 20:02:08;;;;;;;5.50;3.30;;;;;;;6.31;58.17;100965.65;214957;1274;140156;-67
2022/03/26 20:07:14;;;;;;;1.90;1.40;;;;;;;6.19;57.61;100973.93;213683;1274;139467;-68
2022/03/26 20:12:18;;;;;;;4.40;1.70;;;;;;;6.11;56.27;100981.89;213979;1274;140714;-68
2022/03/26 20:22:47;;;;;;;3.20;1.80;;;;;;;5.94;55.55;101004.86;214362;1274;139645;-66
2022/03/26 20:27:51;;;;;;;8.40;2.10;;;;;;;5.84;55.04;101017.95;213676;1274;139279;-68
2022/03/26 20:32:56;;;;;;;2.70;1.90;;;;;;;5.73;54.00;101024.12;214668;1274;141026;-67
2022/03/26 20:38:01;;;;;;;3.30;1.70;;;;;;;5.63;53.76;101037.21;213814;1274;139611;-68
2022/03/26 20:43:06;;;;;;;4.20;1.10;;;;;;;5.51;53.10;101062.87;215760;1273;140500;-69
2022/03/26 20:48:10;;;;;;;6.30;2.10;;;;;;;5.37;52.66;101076.42;214861;1274;141009;-65
2022/03/26 20:53:17;;;;;;;4.10;2.90;;;;;;;5.17;52.33;101087.13;216200;1274;140559;-70
2022/03/26 20:58:24;;;;;;;;;;;;;;;4.96;52.00;101096.84;216097;1273;139120;-74
2022/03/26 21:03:28;;;;;;;4.10;2.00;;;;;;;4.72;51.82;101105.70;216850;1274;126758;-75
2022/03/26 21:08:33;;;;;;;4.20;1.90;;;;;;;4.56;51.75;101123.28;213683;1274;139345;-72
2022/03/26 21:13:37;;;;;;;3.50;1.90;;;;;;;4.39;51.73;101133.52;214659;1274;139209;-76
2022/03/26 21:18:42;;;;;;;3.30;1.90;;;;;;;4.24;51.66;101133.38;214464;1274;140020;-77
2022/03/26 21:23:46;;;;;;;5.90;1.90;;;;;;;4.09;51.70;101138.44;213183;1274;139414;-71
2022/03/26 21:28:52;;;;;;;5.20;2.30;;;;;;;3.94;51.74;101138.53;214637;1274;139291;-70
2022/03/26 21:33:56;;;;;;;5.60;2.10;;;;;;;3.78;51.76;101144.64;214255;1274;209697;-73
2022/03/26 21:39:01;;;;;;;6.10;2.50;;;;;;;3.63;52.17;101147.32;214589;1274;139994;-71
2022/03/26 21:44:07;;;;;;;9.10;2.30;;;;;;;3.49;51.94;101158.16;214093;1274;140434;-72
2022/03/26 21:49:11;;;;;;;6.80;2.10;;;;;;;3.30;52.38;101166.17;213857;1273;140093;-74
2022/03/26 21:54:15;;;;;;;8.40;4.30;;;;;;;3.17;52.26;101174.71;213144;1274;434532;-72
2022/03/26 21:59:19;;;;;;;5.80;3.30;;;;;;;3.03;52.77;101177.45;214316;1274;145209;-73
2022/03/26 22:04:23;;;;;;;6.80;2.40;;;;;;;2.92;53.03;101180.66;214669;1274;140456;-73
2022/03/26 22:09:29;;;;;;;6.80;2.20;;;;;;;2.84;53.42;101193.02;213805;1274;140397;-71
2022/03/26 22:14:34;;;;;;;5.00;2.50;;;;;;;2.71;53.49;101198.71;214771;1274;220506;-71
2022/03/26 22:19:38;;;;;;;9.60;2.80;;;;;;;2.58;54.04;101198.69;214551;1273;141016;-69
2022/03/26 22:24:45;;;;;;;4.30;2.70;;;;;;;2.49;54.03;101192.39;213388;1274;141115;-72
2022/03/26 22:29:49;;;;;;;11.20;3.40;;;;;;;2.42;54.47;101188.73;214277;1274;141386;-72
2022/03/26 22:34:54;;;;;;;6.40;3.00;;;;;;;2.36;54.81;101191.55;214881;1274;141523;-73
2022/03/26 22:45:23;;;;;;;8.50;3.40;;;;;;;2.17;54.93;101211.23;214401;1274;140858;-73
2022/03/26 22:50:29;;;;;;;7.00;3.10;;;;;;;2.04;55.28;101211.13;213801;1274;140933;-76
2022/03/26 22:55:36;;;;;;;8.10;3.40;;;;;;;1.90;55.84;101221.70;214145;1274;140791;-73
2022/03/26 23:00:45;;;;;;;7.00;3.20;;;;;;;1.76;55.84;101230.83;214044;1274;140694;-75
2022/03/26 23:05:49;;;;;;;7.50;3.30;;;;;;;1.56;56.05;101229.73;216134;1274;142304;-72
2022/03/26 23:10:54;;;;;;;5.10;4.30;;;;;;;1.38;56.73;101232.82;216164;1274;141260;-71
2022/03/26 23:15:59;;;;;;;14.40;4.20;;;;;;;1.30;56.87;101239.59;215664;1274;140409;-70